BAW819K EKCH-EGLL
Flight info
| Callsign | BAW819K |
|---|---|
| Flight time | 1h 35m |
| Altitude | 36000 |
| Route | DCT LANGO M611 ALASA DCT EEL DCT VALKO DCT ABNED L980 LOGAN LOGAN2H |
| Aircraft | A320/M-SDE3FGIJ1KRWXY/SB1 |
Departure
| Time | 2026-04-26 15:49 |
|---|---|
| Airport | Copenhagen Kastrup Airport (EKCH) |
Arrival
| Time | 2026-04-26 17:25 |
|---|---|
| Airport | London Heathrow Airport (EGLL) |
| Time | Latitude | Longitude | Altitude | Speed | Heading |
|---|---|---|---|---|---|
| 2026-04-26 14:54 | 55.62696 | 12.65087 | 17 ft | 0 kts | 289° |
| 2026-04-26 14:59 | 55.62695 | 12.65087 | 17 ft | 0 kts | 289° |
| 2026-04-26 15:01 | 55.62695 | 12.65088 | 17 ft | 0 kts | 289° |
| 2026-04-26 15:17 | 55.62695 | 12.65089 | 17 ft | 0 kts | 289° |
| 2026-04-26 15:34 | 55.62695 | 12.65090 | 17 ft | 0 kts | 289° |
| 2026-04-26 15:39 | 55.62690 | 12.65117 | 19 ft | 4 kts | 286° |
| 2026-04-26 15:39 | 55.62682 | 12.65162 | 18 ft | 4 kts | 290° |
| 2026-04-26 15:39 | 55.62679 | 12.65177 | 17 ft | 4 kts | 298° |
| 2026-04-26 15:40 | 55.62654 | 12.65223 | 18 ft | 4 kts | 294° |
| 2026-04-26 15:40 | 55.62652 | 12.65247 | 18 ft | 1 kts | 254° |
| 2026-04-26 15:40 | 55.62641 | 12.65216 | 20 ft | 4 kts | 226° |
| 2026-04-26 15:40 | 55.62617 | 12.65197 | 20 ft | 4 kts | 195° |
| 2026-04-26 15:41 | 55.62592 | 12.65195 | 17 ft | 3 kts | 177° |
| 2026-04-26 15:41 | 55.62566 | 12.65196 | 17 ft | 4 kts | 180° |
| 2026-04-26 15:41 | 55.62539 | 12.65196 | 17 ft | 4 kts | 179° |
| 2026-04-26 15:41 | 55.62517 | 12.65198 | 17 ft | 1 kts | 177° |
| 2026-04-26 15:43 | 55.62463 | 12.65201 | 18 ft | 8 kts | 179° |
| 2026-04-26 15:44 | 55.62401 | 12.65204 | 17 ft | 10 kts | 178° |
| 2026-04-26 15:44 | 55.62237 | 12.65198 | 17 ft | 14 kts | 190° |
| 2026-04-26 15:44 | 55.62149 | 12.65112 | 18 ft | 15 kts | 213° |
| 2026-04-26 15:45 | 55.61946 | 12.64881 | 17 ft | 20 kts | 213° |
| 2026-04-26 15:45 | 55.61827 | 12.64743 | 17 ft | 21 kts | 213° |
| 2026-04-26 15:46 | 55.61564 | 12.64439 | 19 ft | 24 kts | 213° |
| 2026-04-26 15:46 | 55.61434 | 12.64290 | 17 ft | 21 kts | 213° |
| 2026-04-26 15:46 | 55.61305 | 12.64140 | 17 ft | 23 kts | 213° |
| 2026-04-26 15:46 | 55.61214 | 12.64037 | 17 ft | 23 kts | 212° |
| 2026-04-26 15:47 | 55.61034 | 12.63830 | 17 ft | 24 kts | 213° |
| 2026-04-26 15:47 | 55.60813 | 12.63587 | 17 ft | 12 kts | 195° |
| 2026-04-26 15:47 | 55.60752 | 12.63654 | 17 ft | 11 kts | 131° |
| 2026-04-26 15:48 | 55.60698 | 12.63765 | 17 ft | 12 kts | 127° |
| 2026-04-26 15:48 | 55.60680 | 12.63860 | 19 ft | 5 kts | 89° |
| 2026-04-26 15:48 | 55.60695 | 12.63898 | 20 ft | 0 kts | 42° |
| 2026-04-26 15:48 | 55.60697 | 12.63901 | 20 ft | 6 kts | 42° |
| 2026-04-26 15:49 | 55.60917 | 12.64241 | 18 ft | 80 kts | 41° |
| 2026-04-26 15:49 | 55.61492 | 12.65130 | 17 ft | 137 kts | 41° |
| 2026-04-26 15:49 | 55.62298 | 12.66345 | 284 ft | 155 kts | 37° |
| 2026-04-26 15:49 | 55.63104 | 12.67582 | 903 ft | 154 kts | 38° |
| 2026-04-26 15:50 | 55.63909 | 12.68868 | 1371 ft | 161 kts | 38° |
| 2026-04-26 15:50 | 55.64800 | 12.70262 | 1528 ft | 180 kts | 37° |
| 2026-04-26 15:50 | 55.65810 | 12.71795 | 1705 ft | 201 kts | 36° |
| 2026-04-26 15:50 | 55.66946 | 12.73478 | 1893 ft | 226 kts | 36° |
| 2026-04-26 15:51 | 55.68216 | 12.75357 | 2246 ft | 249 kts | 39° |
| 2026-04-26 15:51 | 55.69305 | 12.77826 | 2947 ft | 262 kts | 62° |
| 2026-04-26 15:51 | 55.69778 | 12.80981 | 3757 ft | 272 kts | 86° |
| 2026-04-26 15:51 | 55.69483 | 12.84315 | 4546 ft | 278 kts | 112° |
| 2026-04-26 15:52 | 55.68424 | 12.87183 | 5354 ft | 281 kts | 138° |
| 2026-04-26 15:52 | 55.66782 | 12.89033 | 6155 ft | 281 kts | 162° |
| 2026-04-26 15:52 | 55.64936 | 12.90228 | 6942 ft | 285 kts | 163° |
| 2026-04-26 15:52 | 55.63678 | 12.90925 | 7418 ft | 287 kts | 171° |
| 2026-04-26 15:53 | 55.61022 | 12.91035 | 8353 ft | 288 kts | 194° |
| 2026-04-26 15:53 | 55.59120 | 12.89937 | 9056 ft | 289 kts | 212° |
| 2026-04-26 15:53 | 55.57472 | 12.87927 | 9738 ft | 288 kts | 229° |
| 2026-04-26 15:53 | 55.56069 | 12.85383 | 10404 ft | 292 kts | 232° |
| 2026-04-26 15:54 | 55.54641 | 12.82755 | 10667 ft | 312 kts | 231° |
| 2026-04-26 15:54 | 55.53196 | 12.79683 | 10805 ft | 330 kts | 241° |
| 2026-04-26 15:54 | 55.52107 | 12.76072 | 11183 ft | 335 kts | 253° |
| 2026-04-26 15:54 | 55.51458 | 12.72133 | 11801 ft | 333 kts | 265° |
| 2026-04-26 15:55 | 55.51235 | 12.68094 | 12452 ft | 332 kts | 271° |
| 2026-04-26 15:55 | 55.51087 | 12.64026 | 13126 ft | 333 kts | 271° |
| 2026-04-26 15:55 | 55.50935 | 12.59946 | 13811 ft | 334 kts | 271° |
| 2026-04-26 15:55 | 55.50779 | 12.55840 | 14447 ft | 336 kts | 271° |
| 2026-04-26 15:56 | 55.50620 | 12.51708 | 15019 ft | 338 kts | 270° |
| 2026-04-26 15:56 | 55.50460 | 12.47561 | 15570 ft | 341 kts | 270° |
| 2026-04-26 15:56 | 55.50298 | 12.43374 | 16112 ft | 343 kts | 270° |
| 2026-04-26 15:56 | 55.50133 | 12.39168 | 16644 ft | 345 kts | 270° |
| 2026-04-26 15:57 | 55.49963 | 12.34929 | 17187 ft | 348 kts | 270° |
| 2026-04-26 15:57 | 55.49791 | 12.30653 | 17706 ft | 351 kts | 270° |
| 2026-04-26 15:57 | 55.49412 | 12.26358 | 18199 ft | 360 kts | 259° |
| 2026-04-26 15:57 | 55.48860 | 12.23519 | 18547 ft | 366 kts | 252° |
| 2026-04-26 15:58 | 55.47069 | 12.18288 | 19187 ft | 379 kts | 238° |
| 2026-04-26 15:58 | 55.45479 | 12.14584 | 19683 ft | 380 kts | 238° |
| 2026-04-26 15:58 | 55.43879 | 12.10852 | 20183 ft | 382 kts | 238° |
| 2026-04-26 15:58 | 55.42275 | 12.07105 | 20683 ft | 384 kts | 238° |
| 2026-04-26 15:59 | 55.40663 | 12.03338 | 21166 ft | 386 kts | 238° |
| 2026-04-26 15:59 | 55.39044 | 11.99557 | 21632 ft | 388 kts | 238° |
| 2026-04-26 15:59 | 55.37416 | 11.95765 | 22082 ft | 390 kts | 238° |
| 2026-04-26 15:59 | 55.35772 | 11.91946 | 22520 ft | 392 kts | 238° |
| 2026-04-26 16:00 | 55.34123 | 11.88119 | 22961 ft | 394 kts | 238° |
| 2026-04-26 16:00 | 55.32462 | 11.84274 | 23404 ft | 396 kts | 238° |
| 2026-04-26 16:00 | 55.30792 | 11.80418 | 23840 ft | 398 kts | 238° |
| 2026-04-26 16:00 | 55.29112 | 11.76549 | 24197 ft | 400 kts | 238° |
| 2026-04-26 16:01 | 55.27420 | 11.72661 | 24558 ft | 402 kts | 238° |
| 2026-04-26 16:01 | 55.25720 | 11.68761 | 24902 ft | 404 kts | 238° |
| 2026-04-26 16:01 | 55.24060 | 11.64789 | 25237 ft | 404 kts | 240° |
| 2026-04-26 16:01 | 55.22493 | 11.60693 | 25528 ft | 405 kts | 242° |
| 2026-04-26 16:02 | 55.20980 | 11.56515 | 25854 ft | 407 kts | 243° |
| 2026-04-26 16:02 | 55.19480 | 11.52295 | 26172 ft | 409 kts | 243° |
| 2026-04-26 16:02 | 55.17972 | 11.48066 | 26496 ft | 411 kts | 243° |
| 2026-04-26 16:02 | 55.16958 | 11.45253 | 26711 ft | 413 kts | 242° |
| 2026-04-26 16:03 | 55.14880 | 11.39577 | 27148 ft | 416 kts | 242° |
| 2026-04-26 16:03 | 55.13300 | 11.35322 | 27479 ft | 418 kts | 242° |
| 2026-04-26 16:03 | 55.11706 | 11.31059 | 27806 ft | 420 kts | 242° |
| 2026-04-26 16:03 | 55.10099 | 11.26777 | 28130 ft | 422 kts | 241° |
| 2026-04-26 16:04 | 55.08486 | 11.22480 | 28481 ft | 424 kts | 241° |
| 2026-04-26 16:04 | 55.06875 | 11.18193 | 28938 ft | 422 kts | 241° |
| 2026-04-26 16:04 | 55.05263 | 11.13907 | 29398 ft | 421 kts | 241° |
| 2026-04-26 16:04 | 55.03655 | 11.09644 | 29842 ft | 421 kts | 241° |
| 2026-04-26 16:05 | 55.02048 | 11.05392 | 30261 ft | 420 kts | 241° |
| 2026-04-26 16:05 | 55.00445 | 11.01150 | 30667 ft | 418 kts | 241° |
| 2026-04-26 16:05 | 54.98845 | 10.96923 | 31068 ft | 417 kts | 241° |
| 2026-04-26 16:05 | 54.97227 | 10.92660 | 31459 ft | 416 kts | 241° |
| 2026-04-26 16:06 | 54.95655 | 10.88430 | 31843 ft | 414 kts | 245° |
| 2026-04-26 16:06 | 54.94425 | 10.83955 | 32233 ft | 408 kts | 254° |
| 2026-04-26 16:06 | 54.93617 | 10.79270 | 32628 ft | 404 kts | 259° |
| 2026-04-26 16:06 | 54.92918 | 10.74548 | 33028 ft | 403 kts | 259° |
| 2026-04-26 16:07 | 54.92211 | 10.69833 | 33434 ft | 402 kts | 259° |
| 2026-04-26 16:07 | 54.91501 | 10.65145 | 33844 ft | 401 kts | 259° |
| 2026-04-26 16:07 | 54.90786 | 10.60466 | 34228 ft | 400 kts | 258° |
| 2026-04-26 16:07 | 54.90073 | 10.55798 | 34561 ft | 399 kts | 259° |
| 2026-04-26 16:08 | 54.89364 | 10.51134 | 34847 ft | 399 kts | 259° |
| 2026-04-26 16:08 | 54.88896 | 10.48046 | 35029 ft | 399 kts | 259° |
| 2026-04-26 16:08 | 54.87949 | 10.41812 | 35382 ft | 399 kts | 259° |
| 2026-04-26 16:08 | 54.87238 | 10.37154 | 35647 ft | 399 kts | 259° |
| 2026-04-26 16:09 | 54.86523 | 10.32503 | 35903 ft | 399 kts | 259° |
| 2026-04-26 16:09 | 54.85804 | 10.27842 | 36150 ft | 399 kts | 258° |
| 2026-04-26 16:09 | 54.85081 | 10.23179 | 36275 ft | 401 kts | 258° |
| 2026-04-26 16:10 | 54.83611 | 10.13709 | 36298 ft | 412 kts | 258° |
| 2026-04-26 16:10 | 54.82351 | 10.05704 | 36305 ft | 415 kts | 258° |
| 2026-04-26 16:11 | 54.79977 | 9.94729 | 36310 ft | 423 kts | 243° |
| 2026-04-26 16:11 | 54.76428 | 9.86510 | 36309 ft | 425 kts | 239° |
| 2026-04-26 16:12 | 54.73116 | 9.78042 | 36312 ft | 425 kts | 241° |
| 2026-04-26 16:12 | 54.68251 | 9.65126 | 36307 ft | 426 kts | 241° |
| 2026-04-26 16:13 | 54.64987 | 9.56579 | 36316 ft | 426 kts | 240° |
| 2026-04-26 16:13 | 54.61691 | 9.48061 | 36309 ft | 427 kts | 240° |
| 2026-04-26 16:14 | 54.58384 | 9.39562 | 36323 ft | 427 kts | 240° |
| 2026-04-26 16:15 | 54.53981 | 9.28266 | 36322 ft | 427 kts | 240° |
| 2026-04-26 16:15 | 54.50667 | 9.19779 | 36331 ft | 427 kts | 240° |
| 2026-04-26 16:16 | 54.45694 | 9.07080 | 36325 ft | 427 kts | 240° |
| 2026-04-26 16:16 | 54.42362 | 8.98634 | 36331 ft | 427 kts | 240° |
| 2026-04-26 16:17 | 54.39020 | 8.90195 | 36322 ft | 427 kts | 240° |
| 2026-04-26 16:17 | 54.35679 | 8.81763 | 36329 ft | 427 kts | 240° |
| 2026-04-26 16:18 | 54.30653 | 8.69130 | 36338 ft | 427 kts | 239° |
| 2026-04-26 16:19 | 54.25588 | 8.56484 | 36338 ft | 427 kts | 239° |
| 2026-04-26 16:20 | 54.20537 | 8.43923 | 36330 ft | 428 kts | 239° |
| 2026-04-26 16:20 | 54.15457 | 8.31378 | 36325 ft | 428 kts | 239° |
| 2026-04-26 16:21 | 54.12062 | 8.23027 | 36341 ft | 429 kts | 239° |
| 2026-04-26 16:21 | 54.08665 | 8.14674 | 36347 ft | 429 kts | 239° |
| 2026-04-26 16:22 | 54.05257 | 8.06335 | 36347 ft | 429 kts | 239° |
| 2026-04-26 16:22 | 54.01840 | 7.98015 | 36360 ft | 429 kts | 239° |
| 2026-04-26 16:23 | 53.98420 | 7.89705 | 36324 ft | 429 kts | 239° |
| 2026-04-26 16:23 | 53.94994 | 7.81404 | 36331 ft | 429 kts | 239° |
| 2026-04-26 16:24 | 53.91562 | 7.73114 | 36348 ft | 430 kts | 239° |
| 2026-04-26 16:24 | 53.88094 | 7.64774 | 36354 ft | 430 kts | 239° |
| 2026-04-26 16:25 | 53.84640 | 7.56506 | 36356 ft | 430 kts | 239° |
| 2026-04-26 16:25 | 53.81183 | 7.48247 | 36366 ft | 430 kts | 239° |
| 2026-04-26 16:26 | 53.78311 | 7.41390 | 36356 ft | 430 kts | 239° |
| 2026-04-26 16:26 | 53.74254 | 7.31752 | 36347 ft | 430 kts | 239° |
| 2026-04-26 16:27 | 53.70778 | 7.23521 | 36350 ft | 430 kts | 239° |
| 2026-04-26 16:27 | 53.67297 | 7.15317 | 36358 ft | 430 kts | 239° |
| 2026-04-26 16:28 | 53.63807 | 7.07122 | 36362 ft | 430 kts | 239° |
| 2026-04-26 16:28 | 53.60315 | 6.98932 | 36363 ft | 430 kts | 239° |
| 2026-04-26 16:29 | 53.56819 | 6.90756 | 36364 ft | 430 kts | 239° |
| 2026-04-26 16:29 | 53.53313 | 6.82593 | 36343 ft | 430 kts | 238° |
| 2026-04-26 16:30 | 53.49778 | 6.74401 | 36351 ft | 431 kts | 238° |
| 2026-04-26 16:30 | 53.46258 | 6.66255 | 36354 ft | 431 kts | 238° |
| 2026-04-26 16:31 | 53.42742 | 6.58136 | 36358 ft | 431 kts | 238° |
| 2026-04-26 16:31 | 53.39213 | 6.50023 | 36363 ft | 430 kts | 238° |
| 2026-04-26 16:32 | 53.36272 | 6.43294 | 36364 ft | 431 kts | 238° |
| 2026-04-26 16:32 | 53.32135 | 6.33855 | 36365 ft | 430 kts | 238° |
| 2026-04-26 16:33 | 53.28590 | 6.25780 | 36367 ft | 431 kts | 238° |
| 2026-04-26 16:33 | 53.25034 | 6.17734 | 36367 ft | 431 kts | 238° |
| 2026-04-26 16:34 | 53.21471 | 6.09695 | 36364 ft | 430 kts | 238° |
| 2026-04-26 16:34 | 53.17913 | 6.01674 | 36369 ft | 430 kts | 238° |
| 2026-04-26 16:35 | 53.14350 | 5.93668 | 36372 ft | 430 kts | 238° |
| 2026-04-26 16:35 | 53.10778 | 5.85682 | 36351 ft | 430 kts | 238° |
| 2026-04-26 16:36 | 53.07204 | 5.77704 | 36355 ft | 430 kts | 238° |
| 2026-04-26 16:36 | 53.03630 | 5.69739 | 36358 ft | 430 kts | 238° |
| 2026-04-26 16:37 | 53.00041 | 5.61786 | 36344 ft | 430 kts | 237° |
| 2026-04-26 16:37 | 52.97023 | 5.55137 | 36337 ft | 430 kts | 237° |
| 2026-04-26 16:38 | 52.92844 | 5.45921 | 36351 ft | 430 kts | 237° |
| 2026-04-26 16:38 | 52.89250 | 5.38001 | 36352 ft | 430 kts | 237° |
| 2026-04-26 16:39 | 52.85642 | 5.30106 | 36341 ft | 430 kts | 237° |
| 2026-04-26 16:39 | 52.82004 | 5.22175 | 36348 ft | 430 kts | 237° |
| 2026-04-26 16:40 | 52.78388 | 5.14313 | 36362 ft | 430 kts | 237° |
| 2026-04-26 16:40 | 52.74767 | 5.06448 | 36355 ft | 430 kts | 237° |
| 2026-04-26 16:41 | 52.71142 | 4.98604 | 36346 ft | 430 kts | 237° |
| 2026-04-26 16:41 | 52.67512 | 4.90779 | 36349 ft | 429 kts | 237° |
| 2026-04-26 16:42 | 52.63876 | 4.82981 | 36327 ft | 429 kts | 237° |
| 2026-04-26 16:42 | 52.60240 | 4.75194 | 36335 ft | 429 kts | 237° |
| 2026-04-26 16:43 | 52.56601 | 4.67411 | 36335 ft | 429 kts | 237° |
| 2026-04-26 16:43 | 52.52953 | 4.59646 | 36337 ft | 429 kts | 237° |
| 2026-04-26 16:44 | 52.49299 | 4.51901 | 36337 ft | 429 kts | 237° |
| 2026-04-26 16:44 | 52.45648 | 4.44154 | 36335 ft | 429 kts | 237° |
| 2026-04-26 16:45 | 52.41992 | 4.36427 | 36324 ft | 429 kts | 236° |
| 2026-04-26 16:45 | 52.38322 | 4.28703 | 36328 ft | 430 kts | 236° |
| 2026-04-26 16:46 | 52.34642 | 4.20995 | 36327 ft | 430 kts | 236° |
| 2026-04-26 16:46 | 52.30959 | 4.13301 | 36337 ft | 430 kts | 236° |
| 2026-04-26 16:47 | 52.27871 | 4.06868 | 36336 ft | 430 kts | 236° |
| 2026-04-26 16:47 | 52.23574 | 3.97935 | 36336 ft | 430 kts | 236° |
| 2026-04-26 16:48 | 52.20476 | 3.91513 | 36313 ft | 430 kts | 236° |
| 2026-04-26 16:48 | 52.16771 | 3.83858 | 36326 ft | 430 kts | 236° |
| 2026-04-26 16:49 | 52.13059 | 3.76212 | 36331 ft | 430 kts | 236° |
| 2026-04-26 16:49 | 52.09385 | 3.68527 | 36336 ft | 430 kts | 236° |
| 2026-04-26 16:50 | 52.05756 | 3.60805 | 36336 ft | 430 kts | 237° |
| 2026-04-26 16:50 | 52.02121 | 3.53097 | 36335 ft | 430 kts | 236° |
| 2026-04-26 16:51 | 51.98474 | 3.45405 | 36325 ft | 430 kts | 236° |
| 2026-04-26 16:51 | 51.94807 | 3.37736 | 36333 ft | 430 kts | 236° |
| 2026-04-26 16:52 | 51.91727 | 3.31331 | 36347 ft | 430 kts | 236° |
| 2026-04-26 16:52 | 51.87483 | 3.22444 | 36354 ft | 428 kts | 239° |
| 2026-04-26 16:53 | 51.84967 | 3.13879 | 36345 ft | 419 kts | 257° |
| 2026-04-26 16:53 | 51.84113 | 3.04562 | 36338 ft | 416 kts | 266° |
| 2026-04-26 16:54 | 51.83516 | 2.95254 | 36338 ft | 417 kts | 266° |
| 2026-04-26 16:54 | 51.82895 | 2.85935 | 36331 ft | 417 kts | 265° |
| 2026-04-26 16:55 | 51.82262 | 2.76619 | 36334 ft | 417 kts | 265° |
| 2026-04-26 16:55 | 51.81623 | 2.67299 | 36336 ft | 417 kts | 265° |
| 2026-04-26 16:56 | 51.80665 | 2.53314 | 36337 ft | 417 kts | 265° |
| 2026-04-26 16:56 | 51.80342 | 2.48644 | 36208 ft | 418 kts | 265° |
| 2026-04-26 16:57 | 51.80017 | 2.43995 | 35947 ft | 416 kts | 265° |
| 2026-04-26 16:57 | 51.79690 | 2.39344 | 35678 ft | 416 kts | 265° |
| 2026-04-26 16:57 | 51.79025 | 2.30023 | 34284 ft | 421 kts | 264° |
| 2026-04-26 16:58 | 51.78683 | 2.25297 | 33389 ft | 425 kts | 264° |
| 2026-04-26 16:58 | 51.78456 | 2.22150 | 32843 ft | 427 kts | 264° |
| 2026-04-26 16:58 | 51.77755 | 2.10995 | 31324 ft | 423 kts | 266° |
| 2026-04-26 16:59 | 51.77493 | 2.06283 | 30759 ft | 420 kts | 266° |
| 2026-04-26 16:59 | 51.76964 | 1.96947 | 29584 ft | 413 kts | 265° |
| 2026-04-26 17:00 | 51.76423 | 1.87808 | 28486 ft | 404 kts | 265° |
| 2026-04-26 17:00 | 51.75871 | 1.78807 | 27395 ft | 397 kts | 265° |
| 2026-04-26 17:00 | 51.75597 | 1.74396 | 26860 ft | 393 kts | 264° |
| 2026-04-26 17:01 | 51.75321 | 1.70027 | 26340 ft | 390 kts | 264° |
| 2026-04-26 17:01 | 51.75046 | 1.65696 | 25832 ft | 387 kts | 264° |
| 2026-04-26 17:01 | 51.74773 | 1.61399 | 25332 ft | 384 kts | 264° |
| 2026-04-26 17:01 | 51.74502 | 1.57118 | 24764 ft | 383 kts | 264° |
| 2026-04-26 17:02 | 51.74233 | 1.52835 | 24190 ft | 383 kts | 264° |
| 2026-04-26 17:02 | 51.73961 | 1.48555 | 23568 ft | 383 kts | 264° |
| 2026-04-26 17:02 | 51.73686 | 1.44289 | 22975 ft | 382 kts | 263° |
| 2026-04-26 17:02 | 51.73412 | 1.40042 | 22410 ft | 380 kts | 263° |
| 2026-04-26 17:03 | 51.73137 | 1.35806 | 21844 ft | 379 kts | 263° |
| 2026-04-26 17:03 | 51.72860 | 1.31573 | 21273 ft | 378 kts | 263° |
| 2026-04-26 17:03 | 51.72584 | 1.27362 | 20705 ft | 378 kts | 263° |
| 2026-04-26 17:03 | 51.72305 | 1.23154 | 20138 ft | 377 kts | 263° |
| 2026-04-26 17:04 | 51.72023 | 1.18955 | 19578 ft | 376 kts | 263° |
| 2026-04-26 17:04 | 51.71740 | 1.14768 | 19020 ft | 376 kts | 262° |
| 2026-04-26 17:04 | 51.71456 | 1.10583 | 18429 ft | 375 kts | 262° |
| 2026-04-26 17:04 | 51.71172 | 1.06413 | 17834 ft | 373 kts | 262° |
| 2026-04-26 17:05 | 51.70888 | 1.02275 | 17282 ft | 370 kts | 263° |
| 2026-04-26 17:05 | 51.70606 | 0.98176 | 16729 ft | 367 kts | 263° |
| 2026-04-26 17:05 | 51.70325 | 0.94098 | 16171 ft | 364 kts | 263° |
| 2026-04-26 17:05 | 51.70047 | 0.90063 | 15601 ft | 362 kts | 263° |
| 2026-04-26 17:06 | 51.69768 | 0.86038 | 15049 ft | 359 kts | 263° |
| 2026-04-26 17:06 | 51.69494 | 0.82055 | 14502 ft | 357 kts | 263° |
| 2026-04-26 17:06 | 51.69218 | 0.78100 | 13936 ft | 355 kts | 263° |
| 2026-04-26 17:06 | 51.68937 | 0.74163 | 13345 ft | 353 kts | 263° |
| 2026-04-26 17:07 | 51.68657 | 0.70267 | 12822 ft | 349 kts | 263° |
| 2026-04-26 17:07 | 51.68382 | 0.66408 | 12338 ft | 344 kts | 263° |
| 2026-04-26 17:07 | 51.68108 | 0.62531 | 11683 ft | 344 kts | 263° |
| 2026-04-26 17:07 | 51.67839 | 0.58792 | 11421 ft | 333 kts | 263° |
| 2026-04-26 17:08 | 51.67575 | 0.55155 | 11297 ft | 320 kts | 263° |
| 2026-04-26 17:08 | 51.67317 | 0.51613 | 11170 ft | 308 kts | 263° |
| 2026-04-26 17:08 | 51.67075 | 0.48283 | 11047 ft | 298 kts | 263° |
| 2026-04-26 17:08 | 51.66834 | 0.44983 | 10918 ft | 288 kts | 263° |
| 2026-04-26 17:09 | 51.66602 | 0.41803 | 10630 ft | 285 kts | 263° |
| 2026-04-26 17:09 | 51.66447 | 0.39697 | 10390 ft | 285 kts | 263° |
| 2026-04-26 17:09 | 51.66133 | 0.35470 | 9949 ft | 283 kts | 263° |
| 2026-04-26 17:09 | 51.65903 | 0.32343 | 9643 ft | 280 kts | 263° |
| 2026-04-26 17:10 | 51.65673 | 0.29250 | 9362 ft | 277 kts | 263° |
| 2026-04-26 17:10 | 51.65442 | 0.26178 | 9010 ft | 277 kts | 263° |
| 2026-04-26 17:10 | 51.65207 | 0.23109 | 8770 ft | 273 kts | 263° |
| 2026-04-26 17:10 | 51.64979 | 0.20125 | 8640 ft | 264 kts | 263° |
| 2026-04-26 17:11 | 51.64759 | 0.17233 | 8512 ft | 256 kts | 263° |
| 2026-04-26 17:11 | 51.64545 | 0.14425 | 8394 ft | 249 kts | 263° |
| 2026-04-26 17:11 | 51.64378 | 0.11690 | 8296 ft | 243 kts | 265° |
| 2026-04-26 17:11 | 51.64239 | 0.08924 | 8300 ft | 258 kts | 266° |
| 2026-04-26 17:12 | 51.64024 | 0.03355 | 8297 ft | 244 kts | 266° |
| 2026-04-26 17:12 | 51.63920 | 0.00623 | 8295 ft | 244 kts | 266° |
| 2026-04-26 17:13 | 51.63725 | -0.04780 | 8300 ft | 241 kts | 266° |
| 2026-04-26 17:13 | 51.63632 | -0.07485 | 8294 ft | 242 kts | 266° |
| 2026-04-26 17:13 | 51.63444 | -0.12893 | 8190 ft | 240 kts | 266° |
| 2026-04-26 17:14 | 51.63349 | -0.15577 | 7861 ft | 241 kts | 266° |
| 2026-04-26 17:14 | 51.63152 | -0.20959 | 7347 ft | 239 kts | 266° |
| 2026-04-26 17:14 | 51.63056 | -0.23629 | 7298 ft | 240 kts | 266° |
| 2026-04-26 17:15 | 51.62861 | -0.29011 | 7300 ft | 241 kts | 266° |
| 2026-04-26 17:15 | 51.62762 | -0.31742 | 7301 ft | 240 kts | 266° |
| 2026-04-26 17:15 | 51.62667 | -0.34425 | 7273 ft | 240 kts | 266° |
| 2026-04-26 17:16 | 51.62569 | -0.37129 | 7274 ft | 242 kts | 266° |
| 2026-04-26 17:16 | 51.62468 | -0.39823 | 7275 ft | 241 kts | 266° |
| 2026-04-26 17:16 | 51.62369 | -0.42515 | 7273 ft | 242 kts | 266° |
| 2026-04-26 17:16 | 51.62266 | -0.45223 | 7275 ft | 242 kts | 266° |
| 2026-04-26 17:17 | 51.62161 | -0.47927 | 7217 ft | 241 kts | 266° |
| 2026-04-26 17:17 | 51.61791 | -0.50527 | 6958 ft | 239 kts | 246° |
| 2026-04-26 17:17 | 51.61051 | -0.52914 | 6642 ft | 239 kts | 242° |
| 2026-04-26 17:17 | 51.60262 | -0.55264 | 6346 ft | 238 kts | 241° |
| 2026-04-26 17:18 | 51.59470 | -0.57604 | 6062 ft | 237 kts | 241° |
| 2026-04-26 17:18 | 51.58682 | -0.59933 | 5759 ft | 236 kts | 241° |
| 2026-04-26 17:18 | 51.57901 | -0.62248 | 5485 ft | 235 kts | 241° |
| 2026-04-26 17:18 | 51.57122 | -0.64555 | 5211 ft | 234 kts | 241° |
| 2026-04-26 17:19 | 51.55566 | -0.69174 | 4593 ft | 235 kts | 241° |
| 2026-04-26 17:19 | 51.55042 | -0.70733 | 4420 ft | 235 kts | 241° |
| 2026-04-26 17:19 | 51.53681 | -0.73308 | 4160 ft | 227 kts | 207° |
| 2026-04-26 17:20 | 51.52682 | -0.73865 | 3958 ft | 224 kts | 188° |
| 2026-04-26 17:20 | 51.51669 | -0.74044 | 3764 ft | 219 kts | 182° |
| 2026-04-26 17:20 | 51.49658 | -0.74198 | 3294 ft | 213 kts | 181° |
| 2026-04-26 17:20 | 51.48204 | -0.74068 | 2946 ft | 207 kts | 160° |
| 2026-04-26 17:21 | 51.47109 | -0.72734 | 2591 ft | 199 kts | 115° |
| 2026-04-26 17:21 | 51.47019 | -0.70674 | 2508 ft | 187 kts | 68° |
| 2026-04-26 17:21 | 51.47634 | -0.68850 | 2473 ft | 184 kts | 69° |
| 2026-04-26 17:21 | 51.47708 | -0.66860 | 2338 ft | 182 kts | 99° |
| 2026-04-26 17:22 | 51.47638 | -0.64846 | 2103 ft | 181 kts | 89° |
| 2026-04-26 17:22 | 51.47669 | -0.62833 | 1863 ft | 178 kts | 89° |
| 2026-04-26 17:22 | 51.47687 | -0.60905 | 1637 ft | 168 kts | 90° |
| 2026-04-26 17:22 | 51.47699 | -0.59079 | 1412 ft | 159 kts | 90° |
| 2026-04-26 17:23 | 51.47709 | -0.57293 | 1200 ft | 162 kts | 89° |
| 2026-04-26 17:23 | 51.47718 | -0.55488 | 971 ft | 154 kts | 90° |
| 2026-04-26 17:23 | 51.47725 | -0.53850 | 773 ft | 141 kts | 89° |
| 2026-04-26 17:23 | 51.47732 | -0.52287 | 590 ft | 138 kts | 90° |
| 2026-04-26 17:24 | 51.47740 | -0.50763 | 395 ft | 135 kts | 89° |
| 2026-04-26 17:24 | 51.47749 | -0.49285 | 223 ft | 135 kts | 90° |
| 2026-04-26 17:24 | 51.47754 | -0.47776 | 94 ft | 128 kts | 89° |
| 2026-04-26 17:24 | 51.47759 | -0.46539 | 90 ft | 91 kts | 90° |
| 2026-04-26 17:25 | 51.47761 | -0.45798 | 84 ft | 41 kts | 90° |
| 2026-04-26 17:25 | 51.47751 | -0.45517 | 88 ft | 15 kts | 119° |
| 2026-04-26 17:25 | 51.47660 | -0.45465 | 86 ft | 12 kts | 180° |
| 2026-04-26 17:25 | 51.47640 | -0.45466 | 86 ft | 1 kts | 180° |
| 2026-04-26 17:26 | 51.47624 | -0.45466 | 90 ft | 3 kts | 180° |
| 2026-04-26 17:26 | 51.47605 | -0.45484 | 89 ft | 4 kts | 230° |
| 2026-04-26 17:26 | 51.47596 | -0.45585 | 90 ft | 12 kts | 267° |
| 2026-04-26 17:26 | 51.47595 | -0.45727 | 87 ft | 14 kts | 270° |
| 2026-04-26 17:27 | 51.47595 | -0.45890 | 88 ft | 16 kts | 269° |
| 2026-04-26 17:27 | 51.47594 | -0.46077 | 86 ft | 17 kts | 270° |
| 2026-04-26 17:27 | 51.47593 | -0.46281 | 86 ft | 19 kts | 269° |
| 2026-04-26 17:27 | 51.47593 | -0.46507 | 86 ft | 21 kts | 269° |
| 2026-04-26 17:28 | 51.47591 | -0.46752 | 86 ft | 22 kts | 269° |
| 2026-04-26 17:28 | 51.47582 | -0.46975 | 91 ft | 20 kts | 269° |
| 2026-04-26 17:28 | 51.47581 | -0.47210 | 90 ft | 22 kts | 269° |
| 2026-04-26 17:28 | 51.47581 | -0.47455 | 90 ft | 22 kts | 270° |
| 2026-04-26 17:29 | 51.47580 | -0.47703 | 88 ft | 22 kts | 269° |
| 2026-04-26 17:29 | 51.47580 | -0.47867 | 90 ft | 22 kts | 270° |
| 2026-04-26 17:29 | 51.47579 | -0.48202 | 88 ft | 23 kts | 269° |
| 2026-04-26 17:29 | 51.47578 | -0.48410 | 89 ft | 10 kts | 270° |
| 2026-04-26 17:30 | 51.47537 | -0.48475 | 90 ft | 10 kts | 181° |
| 2026-04-26 17:30 | 51.47467 | -0.48475 | 86 ft | 10 kts | 179° |
| 2026-04-26 17:30 | 51.47392 | -0.48474 | 86 ft | 11 kts | 179° |
| 2026-04-26 17:30 | 51.47312 | -0.48473 | 86 ft | 12 kts | 180° |
| 2026-04-26 17:31 | 51.47242 | -0.48473 | 86 ft | 6 kts | 183° |
| 2026-04-26 17:31 | 51.47232 | -0.48523 | 86 ft | 5 kts | 272° |
| 2026-04-26 17:31 | 51.47233 | -0.48575 | 86 ft | 3 kts | 269° |
| 2026-04-26 17:31 | 51.47233 | -0.48585 | 89 ft | 0 kts | 269° |